Time;durP1;ratioP1;P1;durP2;ratioP2;P2;SDS_P1;SDS_P2;PMS_P1;PMS_P2;Temp;Humidity;BMP_temperature;BMP_pressure;BME280_temperature;BME280_humidity;BME280_pressure;Samples;Min_cycle;Max_cycle;Signal;HPM_P1;HPM_P2
2023/10/18 00:03:06;;;;;;;1.40;1.30;;;;;;;10.38;nan;-7820.38;5027765;28;20272;-66
2023/10/18 00:05:32;;;;;;;1.35;1.27;;;;;;;10.15;nan;-7820.03;5032899;28;20221;-65
2023/10/18 00:07:57;;;;;;;1.50;1.40;;;;;;;10.40;nan;-8140.50;5033021;28;20171;-64
2023/10/18 00:10:27;;;;;;;2.60;1.73;;;;;;;10.23;nan;-7180.03;5032653;28;20199;-63
2023/10/18 00:12:53;;;;;;;1.30;1.30;;;;;;;10.17;nan;-6859.91;5032852;28;20686;-63
2023/10/18 00:15:19;;;;;;;1.13;1.13;;;;;;;10.21;nan;-7820.13;5032462;28;20170;-66
2023/10/18 00:17:45;;;;;;;1.70;1.60;;;;;;;10.20;nan;-8460.06;5032955;28;20190;-64
2023/10/18 00:20:13;;;;;;;1.40;1.30;;;;;;;10.12;nan;-8779.75;5033085;28;20175;-64
2023/10/18 00:22:43;;;;;;;1.60;1.50;;;;;;;10.27;nan;-8780.22;5033064;28;20179;-67
2023/10/18 00:25:10;;;;;;;1.17;1.17;;;;;;;10.31;nan;-9100.31;5032660;28;20197;-64
2023/10/18 00:27:37;;;;;;;1.70;1.60;;;;;;;10.23;nan;-9100.00;5033013;28;20218;-67
2023/10/18 00:30:07;;;;;;;2.60;2.13;;;;;;;10.09;nan;-8779.69;5032759;28;20611;-64
2023/10/18 00:32:34;;;;;;;1.30;1.20;;;;;;;10.32;nan;-8460.38;5032874;28;20180;-63
2023/10/18 00:34:59;;;;;;;1.40;1.30;;;;;;;10.09;nan;-8459.78;5032700;28;20183;-63
2023/10/18 00:37:25;;;;;;;1.38;1.27;;;;;;;10.28;nan;-8780.25;5032508;28;20175;-62
2023/10/18 00:39:51;;;;;;;1.80;1.35;;;;;;;10.29;nan;-9420.16;5032489;28;20176;-67
2023/10/18 00:42:29;;;;;;;1.55;1.45;;;;;;;10.38;nan;-9100.56;5032657;28;20190;-65
2023/10/18 00:44:57;;;;;;;1.50;1.40;;;;;;;10.16;nan;-8779.88;5032623;28;20615;-65
2023/10/18 00:47:23;;;;;;;1.48;1.38;;;;;;;10.14;nan;-9099.69;5032558;28;20278;-65
2023/10/18 00:49:52;;;;;;;1.40;1.30;;;;;;;10.36;nan;-9420.44;5032661;28;20187;-65
2023/10/18 00:52:23;;;;;;;1.30;1.20;;;;;;;10.39;nan;-9420.56;5032413;28;20540;-66
2023/10/18 00:54:48;;;;;;;1.73;1.63;;;;;;;10.38;nan;-9100.53;5032877;28;20661;-64
2023/10/18 00:57:20;;;;;;;2.20;1.42;;;;;;;10.32;nan;-9420.25;5032305;28;20171;-64
2023/10/18 00:59:45;;;;;;;1.20;1.10;;;;;;;10.16;nan;-9739.44;5032477;28;20171;-65
2023/10/18 01:02:13;;;;;;;1.30;1.20;;;;;;;10.21;nan;-10379.28;5034552;28;20198;-66
2023/10/18 01:04:40;;;;;;;1.67;1.58;;;;;;;10.16;nan;-10059.22;5032059;28;20202;-64
2023/10/18 01:07:15;;;;;;;1.50;1.40;;;;;;;10.17;nan;-10698.78;5032562;28;20159;-63
2023/10/18 01:09:48;;;;;;;3.53;2.35;;;;;;;10.08;nan;-10378.53;5032052;28;20198;-66
2023/10/18 01:12:18;;;;;;;1.20;1.20;;;;;;;10.19;nan;-10698.91;5031960;28;20211;-66
2023/10/18 01:14:44;;;;;;;1.30;1.30;;;;;;;10.40;nan;-10700.19;5032097;28;20615;-65
2023/10/18 01:17:10;;;;;;;1.20;1.20;;;;;;;10.40;nan;-10700.22;5032023;28;20647;-65
2023/10/18 01:19:41;;;;;;;1.60;1.50;;;;;;;10.34;nan;-11019.63;5031946;28;20156;-65
2023/10/18 01:22:07;;;;;;;1.40;1.30;;;;;;;10.15;nan;-11018.34;5032227;28;20276;-65
2023/10/18 01:24:36;;;;;;;1.37;1.27;;;;;;;10.32;nan;-11658.97;5032068;28;20168;-65
2023/10/18 01:27:05;;;;;;;1.43;1.33;;;;;;;10.31;nan;-11658.88;5031723;28;20557;-62
2023/10/18 01:29:34;;;;;;;2.17;2.03;;;;;;;10.34;nan;-11978.81;5030353;28;20199;-66
2023/10/18 01:31:59;;;;;;;1.40;1.30;;;;;;;10.43;nan;-11979.53;5031778;28;20175;-66
2023/10/18 01:34:25;;;;;;;1.67;1.57;;;;;;;10.16;nan;-11977.31;5031853;28;20172;-66
2023/10/18 01:36:52;;;;;;;3.30;2.10;;;;;;;10.29;nan;-12298.03;5031953;28;20251;-67
2023/10/18 01:39:18;;;;;;;1.20;1.20;;;;;;;10.36;nan;-11979.00;5031664;28;20630;-64
2023/10/18 01:41:48;;;;;;;1.20;1.20;;;;;;;8.71;nan;-11008.63;5031758;28;20179;-65
2023/10/18 01:44:18;;;;;;;1.77;1.67;;;;;;;9.35;nan;-11332.19;5031527;28;20179;-67
2023/10/18 01:46:52;;;;;;;1.40;1.33;;;;;;;10.41;nan;-11339.87;5031851;28;20186;-67
2023/10/18 01:49:19;;;;;;;1.40;1.30;;;;;;;10.45;nan;-10380.66;5031331;28;20549;-65
2023/10/18 01:51:51;;;;;;;1.30;1.20;;;;;;;10.22;nan;-9419.88;5031672;28;20235;-63
2023/10/18 01:54:17;;;;;;;1.30;1.20;;;;;;;10.42;nan;-10060.59;5031824;28;20190;-63
2023/10/18 01:56:46;;;;;;;1.17;1.17;;;;;;;10.41;nan;-9740.63;5031394;28;20623;-64
2023/10/18 01:59:18;;;;;;;1.50;1.40;;;;;;;10.38;nan;-9740.44;5031798;28;20175;-65
2023/10/18 02:01:53;;;;;;;2.03;1.65;;;;;;;10.32;nan;-10379.88;5032742;28;20229;-63
2023/10/18 02:04:25;;;;;;;1.42;1.33;;;;;;;10.26;nan;-10379.56;5033282;28;20190;-63
2023/10/18 02:06:57;;;;;;;1.00;1.00;;;;;;;10.21;nan;-10379.28;5031865;28;20218;-64
2023/10/18 02:09:41;;;;;;;1.42;1.33;;;;;;;10.10;nan;-10698.38;5031695;28;20275;-64
2023/10/18 02:12:08;;;;;;;1.75;1.65;;;;;;;10.06;nan;-10698.09;5031706;28;20653;-64
2023/10/18 02:14:34;;;;;;;1.02;1.02;;;;;;;10.28;nan;-10699.47;5031161;28;20175;-67
2023/10/18 02:17:06;;;;;;;1.25;1.17;;;;;;;10.09;nan;-10698.28;5031692;28;20172;-64
2023/10/18 02:19:32;;;;;;;1.03;1.03;;;;;;;10.13;nan;-10378.81;5031642;28;20179;-63
2023/10/18 02:21:58;;;;;;;2.33;2.13;;;;;;;10.36;nan;-9420.44;5031336;28;20202;-65
2023/10/18 02:24:24;;;;;;;1.30;1.20;;;;;;;10.11;nan;-9419.44;5031502;28;20172;-66
2023/10/18 02:27:00;;;;;;;1.33;1.23;;;;;;;10.04;nan;-10058.63;5031460;28;20190;-62
2023/10/18 02:29:27;;;;;;;1.20;1.10;;;;;;;10.30;nan;-10379.78;5031847;28;20199;-64
2023/10/18 02:31:57;;;;;;;1.30;1.20;;;;;;;10.15;nan;-10378.97;5031430;28;20178;-64
2023/10/18 02:34:25;;;;;;;1.35;1.25;;;;;;;10.28;nan;-10379.69;5030924;28;20598;-66
2023/10/18 02:36:52;;;;;;;1.67;1.57;;;;;;;8.68;nan;-11008.47;5030895;28;20171;-64
2023/10/18 02:39:27;;;;;;;1.60;1.50;;;;;;;10.07;nan;-12296.09;5031212;28;20187;-64
2023/10/18 02:41:56;;;;;;;1.40;1.30;;;;;;;9.97;nan;-13253.44;5031363;28;20164;-68
2023/10/18 02:44:22;;;;;;;1.20;1.20;;;;;;;9.93;nan;-14210.88;5031925;28;20186;-67
2023/10/18 02:46:52;;;;;;;1.90;1.80;;;;;;;10.15;nan;-14532.94;5034949;28;20175;-63
2023/10/18 02:49:18;;;;;;;1.35;1.25;;;;;;;9.96;nan;-15488.06;5035171;28;20284;-63
2023/10/18 02:51:44;;;;;;;3.27;1.37;;;;;;;10.18;nan;-15810.41;5034538;28;20232;-66
2023/10/18 02:54:16;;;;;;;1.80;1.70;;;;;;;10.19;nan;-16129.75;5034640;28;20203;-64
2023/10/18 02:56:53;;;;;;;1.33;1.23;;;;;;;10.16;nan;-16448.53;5034788;28;20266;-64
2023/10/18 02:59:24;;;;;;;1.70;1.60;;;;;;;10.12;nan;-17724.09;5034255;28;20568;-66
2023/10/18 03:01:54;;;;;;;1.43;1.33;;;;;;;10.13;nan;-18362.31;5034970;28;20190;-63
2023/10/18 03:04:22;;;;;;;1.80;1.70;;;;;;;10.16;nan;-18362.78;5035859;28;20180;-65
2023/10/18 03:06:50;;;;;;;2.17;2.07;;;;;;;9.67;nan;-18353.72;5034015;28;20180;-66
2023/10/18 03:09:38;;;;;;;1.35;1.25;;;;;;;10.00;nan;-18678.63;5033949;28;20257;-66
2023/10/18 03:12:06;;;;;;;1.57;1.47;;;;;;;10.12;nan;-18999.94;5032697;28;20230;-64
2023/10/18 03:14:41;;;;;;;1.65;1.55;;;;;;;10.28;nan;-19002.94;5033976;28;20179;-66
2023/10/18 03:17:23;;;;;;;1.83;1.73;;;;;;;10.23;nan;-18682.97;5033966;28;20630;-64
2023/10/18 03:19:50;;;;;;;1.80;1.70;;;;;;;7.96;nan;-18321.69;5034134;28;20187;-62
2023/10/18 03:22:19;;;;;;;1.60;1.50;;;;;;;10.36;nan;-18366.47;5032483;28;20195;-64
2023/10/18 03:24:54;;;;;;;1.65;1.55;;;;;;;10.28;nan;-18365.03;5032970;28;20190;-66
2023/10/18 03:27:20;;;;;;;1.70;1.60;;;;;;;10.26;nan;-19002.53;5033235;28;20669;-67
2023/10/18 03:29:46;;;;;;;1.90;1.80;;;;;;;10.26;nan;-19321.47;5033430;28;20658;-67
2023/10/18 03:32:19;;;;;;;1.40;1.30;;;;;;;10.34;nan;-19642.03;5033540;28;20175;-64
2023/10/18 03:34:45;;;;;;;1.27;1.20;;;;;;;10.39;nan;-19005.22;5032867;28;20164;-65
2023/10/18 03:37:26;;;;;;;1.70;1.60;;;;;;;10.27;nan;-19321.75;5032124;28;20171;-65
2023/10/18 03:39:55;;;;;;;1.20;1.10;;;;;;;10.36;nan;-19642.44;5031783;28;20179;-64
2023/10/18 03:42:33;;;;;;;2.60;1.93;;;;;;;10.31;nan;-19641.50;5031667;28;20545;-65
2023/10/18 03:44:59;;;;;;;1.27;1.23;;;;;;;10.36;nan;-19961.38;5031541;28;20567;-64
2023/10/18 03:47:25;;;;;;;2.10;1.90;;;;;;;10.24;nan;-19958.91;5031573;28;20170;-63
2023/10/18 03:49:53;;;;;;;2.05;1.85;;;;;;;10.42;nan;-19962.66;5031699;28;20202;-67
2023/10/18 03:52:22;;;;;;;1.65;1.55;;;;;;;10.26;nan;-20278.06;5033138;28;20226;-67
2023/10/18 03:57:28;;;;;;;1.77;1.20;;;;;;;10.31;nan;-20598.09;5032970;28;20174;-65
2023/10/18 03:59:59;;;;;;;1.80;1.70;;;;;;;10.32;nan;-20598.31;5033261;28;20206;-66
2023/10/18 04:04:57;;;;;;;1.40;1.30;;;;;;;10.34;nan;-21236.25;5033640;28;20270;-63
2023/10/18 04:07:24;;;;;;;1.33;1.23;;;;;;;10.28;nan;-21553.56;5034211;28;20513;-66
2023/10/18 04:12:27;;;;;;;2.20;2.00;;;;;;;10.51;nan;-21240.38;5032093;28;20227;-64
2023/10/18 04:14:56;;;;;;;2.22;1.35;;;;;;;10.50;nan;-21877.78;5032039;28;20190;-65
2023/10/18 04:20:04;;;;;;;1.83;1.30;;;;;;;10.35;nan;-21236.63;5026558;28;20333;-64
2023/10/18 04:22:29;;;;;;;2.40;1.92;;;;;;;10.54;nan;-21241.09;5022443;28;20175;-62
2023/10/18 04:24:55;;;;;;;2.55;2.03;;;;;;;10.28;nan;-21234.97;5021389;28;20228;-63
2023/10/18 04:27:21;;;;;;;1.98;1.80;;;;;;;10.38;nan;-21556.09;5023783;28;20176;-64
2023/10/18 04:29:48;;;;;;;1.50;1.40;;;;;;;10.40;nan;-21556.59;5022529;28;20191;-65
2023/10/18 04:32:19;;;;;;;1.65;1.55;;;;;;;10.59;nan;-21880.00;5025746;28;20167;-66
2023/10/18 04:34:46;;;;;;;4.05;1.77;;;;;;;10.42;nan;-21875.81;5031350;28;20179;-66
2023/10/18 04:37:12;;;;;;;1.90;1.73;;;;;;;10.55;nan;-21560.06;5030192;28;20302;-69
2023/10/18 04:39:40;;;;;;;2.45;1.85;;;;;;;10.50;nan;-21558.97;5030615;28;20192;-64
2023/10/18 04:42:06;;;;;;;1.50;1.40;;;;;;;10.26;nan;-21871.91;5028507;28;20207;-66
2023/10/18 04:44:36;;;;;;;1.63;1.52;;;;;;;10.55;nan;-21878.91;5030387;28;20184;-62
2023/10/18 04:47:13;;;;;;;1.58;1.48;;;;;;;10.58;nan;-22198.56;5028625;28;20615;-69
2023/10/18 04:49:39;;;;;;;1.17;1.10;;;;;;;10.52;nan;-21878.28;5029769;28;20205;-63
2023/10/18 04:52:07;;;;;;;1.63;1.52;;;;;;;10.40;nan;-21875.34;5031663;28;20179;-68
2023/10/18 04:54:37;;;;;;;1.75;1.65;;;;;;;10.59;nan;-21879.88;5031866;28;20183;-68
2023/10/18 04:57:10;;;;;;;1.58;1.48;;;;;;;10.68;nan;-22200.84;5029603;28;20186;-66
2023/10/18 04:59:59;;;;;;;1.13;1.13;;;;;;;10.51;nan;-21877.91;5007919;28;20262;-68
2023/10/18 05:02:29;;;;;;;1.67;1.58;;;;;;;10.48;nan;-21877.31;5007300;28;20196;-63
2023/10/18 05:04:57;;;;;;;1.70;1.60;;;;;;;10.56;nan;-21879.16;5006684;28;20235;-67
2023/10/18 05:07:40;;;;;;;1.10;1.10;;;;;;;10.73;nan;-22202.09;5005324;28;20180;-68
2023/10/18 05:10:16;;;;;;;2.00;1.77;;;;;;;10.43;nan;-22194.81;5003964;28;20239;-67
2023/10/18 05:13:19;;;;;;;2.95;1.85;;;;;;;10.84;nan;-22204.84;5009325;28;20647;-66
2023/10/18 05:15:33;;;;;;;1.80;1.65;;;;;;;10.74;nan;-21883.56;5009935;28;20196;-66
2023/10/18 05:18:06;;;;;;;1.27;1.17;;;;;;;10.75;nan;-21883.81;5009310;28;20615;-69
2023/10/18 05:23:21;;;;;;;1.80;1.70;;;;;;;10.88;nan;-21567.88;5009548;28;20186;-62
2023/10/18 05:25:47;;;;;;;2.20;2.00;;;;;;;10.92;nan;-21249.78;5008829;28;20194;-62
2023/10/18 05:28:15;;;;;;;2.35;1.63;;;;;;;10.73;nan;-20926.44;5009028;28;20176;-65
2023/10/18 05:43:46;;;;;;;1.65;1.55;;;;;;;10.94;nan;-20293.00;5030426;28;20309;-67
2023/10/18 05:46:11;;;;;;;1.67;1.58;;;;;;;11.01;nan;-19975.19;5031329;28;20210;-66
2023/10/18 05:48:41;;;;;;;1.90;1.80;;;;;;;10.96;nan;-19974.22;5031576;28;20181;-66
2023/10/18 05:53:52;;;;;;;1.45;1.35;;;;;;;11.05;nan;-19656.88;5032202;28;20683;-65
2023/10/18 05:56:24;;;;;;;1.40;1.30;;;;;;;10.85;nan;-19652.69;5030202;28;20279;-65
2023/10/18 05:59:16;;;;;;;2.40;1.83;;;;;;;11.02;nan;-19656.13;5031345;28;20160;-67
2023/10/18 06:01:38;;;;;;;2.22;2.03;;;;;;;10.88;nan;-19334.09;5031751;28;20592;-68
2023/10/18 06:04:03;;;;;;;2.35;1.30;;;;;;;11.02;nan;-19336.84;5031435;28;20230;-68
2023/10/18 06:06:30;;;;;;;1.58;1.48;;;;;;;10.93;nan;-19335.00;5031450;28;20175;-64
2023/10/18 06:08:57;;;;;;;1.83;1.73;;;;;;;10.89;nan;-18695.66;5031831;28;20226;-66
2023/10/18 06:11:23;;;;;;;3.28;1.73;;;;;;;10.81;nan;-19332.66;5030789;28;20530;-66
2023/10/18 06:13:49;;;;;;;1.70;1.15;;;;;;;10.99;nan;-19655.63;5030161;28;20266;-64
2023/10/18 06:16:20;;;;;;;2.83;1.80;;;;;;;11.11;nan;-19338.69;5030000;28;20187;-65
2023/10/18 06:18:49;;;;;;;1.52;1.33;;;;;;;11.06;nan;-18699.03;5032963;28;20168;-65
2023/10/18 06:21:21;;;;;;;1.92;1.55;;;;;;;11.35;nan;-18384.97;5035585;28;20276;-67
2023/10/18 06:23:56;;;;;;;1.40;1.30;;;;;;;11.46;nan;-17747.63;5034740;28;20597;-64
2023/10/18 06:26:28;;;;;;;1.60;1.50;;;;;;;11.89;nan;-15194.81;5034771;28;20159;-69
2023/10/18 06:29:00;;;;;;;1.98;1.83;;;;;;;12.05;nan;-13595.25;5034713;28;20195;-66
2023/10/18 06:31:30;;;;;;;1.65;1.48;;;;;;;11.97;nan;-11030.44;5034693;28;20172;-67
2023/10/18 06:34:04;;;;;;;1.55;1.45;;;;;;;12.14;nan;-11031.56;5034993;28;20182;-66
2023/10/18 06:36:32;;;;;;;1.77;1.67;;;;;;;12.14;nan;-8464.91;5034728;28;20162;-68
2023/10/18 06:38:58;;;;;;;2.53;1.73;;;;;;;12.37;nan;-6538.38;5035201;28;20188;-67
2023/10/18 06:41:29;;;;;;;2.42;1.80;;;;;;;12.20;nan;-4610.84;5034927;28;20577;-68
2023/10/18 06:43:58;;;;;;;1.85;1.50;;;;;;;12.23;nan;-4932.09;5034629;28;20167;-64
2023/10/18 06:46:26;;;;;;;2.30;2.05;;;;;;;12.44;nan;-1071.53;5034656;28;20168;-65
2023/10/18 06:48:56;;;;;;;3.00;2.00;;;;;;;12.47;nan;538.41;5034437;28;20199;-65
2023/10/18 06:51:31;;;;;;;1.60;1.50;;;;;;;12.51;nan;7308.69;5034476;28;20174;-65
2023/10/18 06:54:07;;;;;;;1.38;1.27;;;;;;;12.59;nan;6019.97;5036954;28;20229;-63
2023/10/18 06:56:39;;;;;;;1.45;1.35;;;;;;;;;;5034491;28;20167;-65
2023/10/18 06:59:06;;;;;;;1.38;1.30;;;;;;;13.04;nan;11199.25;5034517;28;20206;-67
2023/10/18 07:01:32;;;;;;;2.00;1.90;;;;;;;13.17;nan;18326.19;5034475;28;20218;-66
2023/10/18 07:03:58;;;;;;;2.03;1.30;;;;;;;13.38;nan;25475.66;5034446;28;20599;-68
2023/10/18 07:06:29;;;;;;;2.25;1.58;;;;;;;13.31;nan;20277.59;5034883;28;20529;-63
2023/10/18 07:08:55;;;;;;;1.58;1.48;;;;;;;13.13;nan;18648.84;5034602;28;20618;-65
2023/10/18 07:11:23;;;;;;;2.33;1.85;;;;;;;13.27;nan;20600.63;5034356;28;20249;-63
2023/10/18 07:13:57;;;;;;;1.90;1.38;;;;;;;13.39;nan;21254.63;5034617;28;20198;-65
2023/10/18 07:16:33;;;;;;;1.80;1.70;;;;;;;13.65;nan;19319.28;5033928;28;20167;-63
2023/10/18 07:21:43;;;;;;;3.28;1.48;;;;;;;13.79;nan;23871.97;5034350;28;20237;-64
2023/10/18 07:24:09;;;;;;;2.88;1.58;;;;;;;8.62;nan;23613.41;5034103;28;20183;-68
2023/10/18 07:26:38;;;;;;;1.30;1.20;;;;;;;13.48;nan;26131.06;5033648;28;20179;-63
2023/10/18 07:29:07;;;;;;;2.03;1.73;;;;;;;13.64;nan;30695.16;5032456;28;20230;-64
2023/10/18 07:31:47;;;;;;;1.42;1.33;;;;;;;7.86;nan;29696.16;5033247;28;20554;-65
2023/10/18 07:34:19;;;;;;;1.50;1.38;;;;;;;13.39;nan;23202.38;5033899;28;20198;-67
2023/10/18 07:36:47;;;;;;;2.13;1.80;;;;;;;13.36;nan;23525.84;5033893;28;20182;-67
2023/10/18 07:39:16;;;;;;;1.27;1.17;;;;;;;13.50;nan;28408.38;5033398;28;20171;-67
2023/10/18 07:41:42;;;;;;;1.77;1.48;;;;;;;13.55;nan;31991.66;5033176;28;20195;-66
2023/10/18 07:44:08;;;;;;;1.83;1.70;;;;;;;13.59;nan;28738.97;5033064;28;20175;-65
2023/10/18 07:46:34;;;;;;;1.83;1.67;;;;;;;13.81;nan;28751.94;5033596;28;20183;-64
2023/10/18 07:49:11;;;;;;;6.72;2.58;;;;;;;13.69;nan;32978.00;5033426;28;20199;-66
2023/10/18 07:51:48;;;;;;;2.83;2.05;;;;;;;13.73;nan;38440.25;5033548;28;20564;-67
2023/10/18 07:54:15;;;;;;;4.78;2.00;;;;;;;13.86;nan;38284.22;5035266;28;20538;-65
2023/10/18 07:56:50;;;;;;;1.60;1.50;;;;;;;14.01;nan;42397.69;5033296;28;20167;-67
2023/10/18 07:59:31;;;;;;;2.70;2.08;;;;;;;14.09;nan;45623.91;5033564;28;20619;-66
2023/10/18 08:04:36;;;;;;;6.18;2.17;;;;;;;14.37;nan;47915.44;5033257;28;20233;-63
2023/10/18 08:07:03;;;;;;;1.60;1.50;;;;;;;14.57;nan;50864.19;5033132;28;20607;-67
2023/10/18 08:09:29;;;;;;;1.92;1.73;;;;;;;14.82;nan;52952.19;5033039;28;20199;-64
2023/10/18 08:11:55;;;;;;;1.75;1.50;;;;;;;14.62;nan;55559.50;5032850;28;20688;-66
2023/10/18 08:14:24;;;;;;;2.30;2.10;;;;;;;14.72;nan;55084.72;5032534;28;20219;-66
2023/10/18 08:16:56;;;;;;;1.92;1.55;;;;;;;14.75;nan;54515.44;5032924;28;20171;-68
2023/10/18 08:19:24;;;;;;;3.92;1.88;;;;;;;14.70;nan;52919.78;5032930;28;20206;-68
2023/10/18 08:24:34;;;;;;;2.22;1.60;;;;;;;14.97;nan;54548.13;5032755;28;20681;-66
2023/10/18 08:27:10;;;;;;;5.15;2.15;;;;;;;14.97;nan;57327.06;5032706;28;20171;-67
2023/10/18 08:29:39;;;;;;;1.58;1.13;;;;;;;14.86;nan;57761.81;5033001;28;20581;-65
2023/10/18 08:32:18;;;;;;;1.38;1.27;;;;;;;14.99;nan;58204.94;5032502;28;20214;-65
2023/10/18 08:34:45;;;;;;;1.85;1.38;;;;;;;15.55;nan;59088.16;5032307;28;20604;-67
2023/10/18 08:37:13;;;;;;;3.45;1.85;;;;;;;15.06;nan;58724.03;5032448;28;20198;-65
2023/10/18 08:39:55;;;;;;;2.30;1.42;;;;;;;15.11;nan;58248.19;5032514;28;20659;-67
2023/10/18 08:42:32;;;;;;;1.30;1.15;;;;;;;15.14;nan;58374.81;5031770;28;20636;-66
2023/10/18 08:45:03;;;;;;;2.25;1.55;;;;;;;15.66;nan;58405.41;5030523;28;20175;-66
2023/10/18 08:47:34;;;;;;;3.03;1.60;;;;;;;15.93;nan;59110.59;5032017;28;20174;-67
2023/10/18 08:50:00;;;;;;;3.97;1.98;;;;;;;15.92;nan;59269.69;5031786;28;20194;-68
2023/10/18 08:52:32;;;;;;;2.03;1.70;;;;;;;15.86;nan;59443.88;5032091;28;20175;-66
2023/10/18 08:55:19;;;;;;;2.28;1.90;;;;;;;15.95;nan;59437.78;5032660;28;20170;-68
2023/10/18 08:57:46;;;;;;;2.60;2.00;;;;;;;15.61;nan;59258.88;5033235;28;20191;-67
2023/10/18 09:02:53;;;;;;;2.83;2.00;;;;;;;15.45;nan;59120.94;5031956;28;20221;-65
2023/10/18 09:05:24;;;;;;;2.72;1.80;;;;;;;15.44;nan;59169.25;5031724;28;20167;-68
2023/10/18 09:07:54;;;;;;;3.65;1.58;;;;;;;15.27;nan;59153.22;5031717;28;20176;-67
2023/10/18 09:13:33;;;;;;;1.92;1.73;;;;;;;;;;5031016;28;20222;-65
2023/10/18 09:18:26;;;;;;;3.05;2.47;;;;;;;15.11;nan;58171.06;5031700;28;20237;-65
2023/10/18 09:20:55;;;;;;;1.90;1.75;;;;;;;15.47;nan;59131.41;5031432;28;20167;-67
2023/10/18 09:23:21;;;;;;;3.65;2.13;;;;;;;15.35;nan;59100.25;5031451;28;20163;-67
2023/10/18 09:26:10;;;;;;;1.58;1.48;;;;;;;15.45;nan;59231.56;5031728;28;20495;-65
2023/10/18 09:28:37;;;;;;;2.13;1.83;;;;;;;15.88;nan;59440.38;5031972;28;20164;-64
2023/10/18 09:31:09;;;;;;;1.90;1.75;;;;;;;16.16;nan;59540.72;5031706;28;20179;-66
2023/10/18 09:33:48;;;;;;;2.28;1.52;;;;;;;16.50;nan;59943.63;5031361;28;20167;-65
2023/10/18 09:36:23;;;;;;;2.55;2.35;;;;;;;16.24;nan;60012.72;5031200;28;20164;-68
2023/10/18 09:38:51;;;;;;;2.85;1.90;;;;;;;16.37;nan;60101.34;5031782;28;20267;-65
2023/10/18 09:41:17;;;;;;;1.63;1.45;;;;;;;16.59;nan;60082.50;5031420;28;20555;-64
2023/10/18 09:43:49;;;;;;;4.90;2.88;;;;;;;16.78;nan;60162.34;5031536;28;20234;-67
2023/10/18 09:46:16;;;;;;;1.95;1.65;;;;;;;16.78;nan;60312.47;5031544;28;20199;-66
2023/10/18 09:48:46;;;;;;;2.78;2.05;;;;;;;16.74;nan;60395.72;5031250;28;20175;-67
2023/10/18 09:51:18;;;;;;;2.67;1.67;;;;;;;16.62;nan;60268.34;5031662;28;20171;-65
2023/10/18 09:53:48;;;;;;;2.13;1.83;;;;;;;16.73;nan;60404.94;5032837;28;20629;-65
2023/10/18 09:56:17;;;;;;;2.22;1.35;;;;;;;16.68;nan;60409.69;5035552;28;20163;-67
2023/10/18 09:58:46;;;;;;;3.78;2.30;;;;;;;16.91;nan;60406.38;5038136;28;20266;-66
2023/10/18 10:01:17;;;;;;;2.55;2.35;;;;;;;17.07;nan;60431.41;5034647;28;20563;-64
2023/10/18 10:04:03;;;;;;;3.13;2.40;;;;;;;17.30;nan;60568.03;5035569;28;20272;-68
2023/10/18 10:06:29;;;;;;;3.67;1.88;;;;;;;17.58;nan;60583.28;5035463;28;20294;-68
2023/10/18 10:09:30;;;;;;;2.92;2.22;;;;;;;17.73;nan;60413.50;5034991;28;20237;-65
2023/10/18 10:11:48;;;;;;;2.35;1.58;;;;;;;17.87;nan;60664.25;5033762;28;20233;-68
2023/10/18 10:14:16;;;;;;;2.42;1.90;;;;;;;17.80;nan;60901.88;5035262;28;20258;-64
2023/10/18 10:16:56;;;;;;;2.03;1.85;;;;;;;17.49;nan;60702.34;5035051;28;20183;-69
2023/10/18 10:19:29;;;;;;;2.13;1.60;;;;;;;17.15;nan;60569.94;5034753;28;20164;-66
2023/10/18 10:22:04;;;;;;;3.72;1.90;;;;;;;17.00;nan;60527.38;5035672;28;20186;-68
2023/10/18 10:24:35;;;;;;;1.83;1.73;;;;;;;17.10;nan;60744.44;5034679;28;20171;-65
2023/10/18 10:27:39;;;;;;;4.70;2.80;;;;;;;17.19;nan;60817.03;5034631;28;20179;-65
2023/10/18 10:32:52;;;;;;;2.05;1.60;;;;;;;17.84;nan;61089.84;5034911;28;20189;-65
2023/10/18 10:35:20;;;;;;;3.15;1.33;;;;;;;18.13;nan;60962.19;5034786;28;20175;-64
2023/10/18 10:38:09;;;;;;;3.75;1.92;;;;;;;18.27;nan;61016.69;5034726;28;20259;-66
2023/10/18 10:40:39;;;;;;;2.20;1.52;;;;;;;18.42;nan;61227.56;5034554;28;20159;-68
2023/10/18 10:43:08;;;;;;;3.80;1.90;;;;;;;18.19;nan;61092.47;5034446;28;20172;-64
2023/10/18 10:45:38;;;;;;;3.13;2.28;;;;;;;18.50;nan;61078.78;5034063;28;20167;-64
2023/10/18 10:48:15;;;;;;;3.15;1.98;;;;;;;18.14;nan;61167.56;5034190;28;20653;-67
2023/10/18 10:50:53;;;;;;;3.47;2.33;;;;;;;17.47;nan;61061.66;5033991;28;20230;-70
2023/10/18 10:53:44;;;;;;;3.88;2.75;;;;;;;17.04;nan;61001.50;5034382;28;20179;-68
2023/10/18 10:56:23;;;;;;;2.38;1.80;;;;;;;17.11;nan;61013.97;5034257;28;20175;-68
2023/10/18 10:58:54;;;;;;;2.53;2.00;;;;;;;17.49;nan;60974.06;5036861;28;20175;-70
2023/10/18 11:01:31;;;;;;;2.67;1.70;;;;;;;17.61;nan;60935.94;5034736;28;20168;-67
2023/10/18 11:03:59;;;;;;;1.92;1.52;;;;;;;13.04;nan;61880.81;5034647;28;20166;-66
2023/10/18 11:06:32;;;;;;;1.88;1.60;;;;;;;17.81;nan;61066.34;5033531;28;20182;-66
2023/10/18 11:08:58;;;;;;;4.45;1.58;;;;;;;17.85;nan;61096.13;5032971;28;20198;-67
2023/10/18 11:11:27;;;;;;;1.90;1.35;;;;;;;16.61;nan;61056.88;5033823;28;20179;-67
2023/10/18 11:13:53;;;;;;;2.50;1.70;;;;;;;18.40;nan;61224.75;5033600;28;20180;-69
2023/10/18 11:16:21;;;;;;;2.95;1.92;;;;;;;18.54;nan;61116.38;5034446;28;20182;-67
2023/10/18 11:18:52;;;;;;;2.30;1.60;;;;;;;18.41;nan;61158.63;5034336;28;20168;-68
2023/10/18 11:21:19;;;;;;;2.10;1.85;;;;;;;18.57;nan;61264.66;5034353;28;20543;-66
2023/10/18 11:24:01;;;;;;;2.03;1.65;;;;;;;18.77;nan;61421.22;5034450;28;20190;-66
2023/10/18 11:26:29;;;;;;;4.88;2.25;;;;;;;18.98;nan;61331.63;5033861;28;20234;-67
2023/10/18 11:29:05;;;;;;;2.00;1.80;;;;;;;19.02;nan;61307.06;5033851;28;20258;-67
2023/10/18 11:31:31;;;;;;;2.88;1.73;;;;;;;19.02;nan;61402.88;5034234;28;20203;-68
2023/10/18 11:34:07;;;;;;;2.75;1.80;;;;;;;18.94;nan;61308.41;5033957;28;20167;-65
2023/10/18 11:36:39;;;;;;;2.45;1.67;;;;;;;18.53;nan;61221.88;5023453;28;20194;-68
2023/10/18 11:39:18;;;;;;;1.92;1.60;;;;;;;18.61;nan;61191.53;5033111;28;20195;-70
2023/10/18 11:41:49;;;;;;;1.95;1.65;;;;;;;18.78;nan;61261.88;5033135;28;20167;-67
2023/10/18 11:44:30;;;;;;;1.48;1.30;;;;;;;18.76;nan;61306.22;5033204;28;20167;-66
2023/10/18 11:47:00;;;;;;;1.58;1.48;;;;;;;18.81;nan;61252.34;5033187;28;20170;-68
2023/10/18 11:49:39;;;;;;;3.53;2.03;;;;;;;19.04;nan;61389.06;5033055;28;20237;-68
2023/10/18 11:52:12;;;;;;;1.98;1.73;;;;;;;18.89;nan;61372.66;5032207;28;20625;-70
2023/10/18 11:54:37;;;;;;;1.13;1.02;;;;;;;18.87;nan;61323.81;5032601;28;20167;-64
2023/10/18 11:57:07;;;;;;;1.83;1.48;;;;;;;18.63;nan;61353.66;5033394;28;20577;-68
2023/10/18 11:59:51;;;;;;;3.08;1.63;;;;;;;18.88;nan;61441.44;5033166;28;20172;-64
2023/10/18 12:02:17;;;;;;;1.95;1.60;;;;;;;18.76;nan;61425.84;5034091;28;20171;-67
2023/10/18 12:04:45;;;;;;;2.13;1.73;;;;;;;18.73;nan;61425.03;5033462;28;20175;-64
2023/10/18 12:07:13;;;;;;;2.45;1.40;;;;;;;18.69;nan;61407.00;5032895;28;20189;-66
2023/10/18 12:09:45;;;;;;;2.58;1.83;;;;;;;18.83;nan;61312.09;5032629;28;20198;-66
2023/10/18 12:12:14;;;;;;;2.55;1.30;;;;;;;18.70;nan;61237.91;5032715;28;20219;-64
2023/10/18 12:14:42;;;;;;;1.40;1.30;;;;;;;18.87;nan;61318.63;5032784;28;20171;-66
2023/10/18 12:17:07;;;;;;;1.60;1.33;;;;;;;18.89;nan;61341.59;5032013;28;20600;-64
2023/10/18 12:19:37;;;;;;;2.72;1.75;;;;;;;18.94;nan;61443.59;5032777;28;20171;-67
2023/10/18 12:22:04;;;;;;;3.78;2.00;;;;;;;18.80;nan;61437.56;5032075;28;20195;-68
2023/10/18 12:24:33;;;;;;;2.60;1.95;;;;;;;18.80;nan;61388.94;5032298;28;20226;-68
2023/10/18 12:27:15;;;;;;;3.85;1.90;;;;;;;18.79;nan;61345.84;5032457;28;20287;-67
2023/10/18 12:29:43;;;;;;;1.88;1.63;;;;;;;18.83;nan;61350.91;5031931;28;20562;-68
2023/10/18 12:32:30;;;;;;;1.92;1.45;;;;;;;18.73;nan;61360.31;5032146;28;20712;-70
2023/10/18 12:34:56;;;;;;;1.90;1.80;;;;;;;18.29;nan;61253.72;5031914;28;20645;-66
2023/10/18 12:37:32;;;;;;;3.47;2.35;;;;;;;18.47;nan;61310.81;5032285;28;20168;-66
2023/10/18 12:39:59;;;;;;;1.75;1.50;;;;;;;18.10;nan;61267.03;5032282;28;20677;-67
2023/10/18 12:42:25;;;;;;;1.65;1.30;;;;;;;18.19;nan;61273.47;5030743;28;20167;-68
2023/10/18 12:44:55;;;;;;;3.30;2.03;;;;;;;18.21;nan;61255.63;5031174;28;20183;-69
2023/10/18 12:47:21;;;;;;;1.90;1.55;;;;;;;18.43;nan;61508.06;5031789;28;20171;-68
2023/10/18 12:49:56;;;;;;;1.50;1.33;;;;;;;18.42;nan;61245.09;5031840;28;20301;-68
2023/10/18 12:57:49;;;;;;;1.33;1.23;;;;;;;18.35;nan;61214.50;5031587;28;20177;-64
2023/10/18 13:00:16;;;;;;;1.48;1.27;;;;;;;18.41;nan;61417.84;5031504;28;20577;-70